Glen Arbor, MI (49636)

8:05 PM EDT on June 28, 2017 (GMT -0400)
Leelanau Coffee Roasting | | Change Station
Active Advisory: Beach Hazard Statement

Elev 590 ft 44.90 °N, 86.01 °W | Updated 4 seconds ago

Overcast
Overcast
64.5 °F
Feels Like 64.5 °F
N
0.0
Wind Variable Wind from NE
Gusts 5.0 mph

Today
High -- | Low -- °F
--% Chance of Precip.
Yesterday
High -- | Low -- °F
Precip. -- in
Pressure 29.77 in
Visibility 10.0 miles
Clouds Scattered Clouds 6000 ft
Mostly Cloudy 7000 ft
Dew Point 62 °F
Humidity 90%
Rainfall 0.43 in
Snow Depth Not available.
6:00 AM 9:34 PM
Waxing Crescent, 30% visible
METAR KFKS 282355Z AUTO 16009G16KT 160V220 10SM SCT060 BKN070 19/15 A2977 RMK AO2 T01880153 10188 20167
Pressure 29.77 in
Visibility 10.0 miles
Clouds Scattered Clouds 6000 ft
Mostly Cloudy 7000 ft
Dew Point 62 °F
Humidity 90%
Rainfall 0.43 in
Snow Depth Not available.
6:00 AM 9:34 PM
Waxing Crescent, 30% visible
METAR KFKS 282355Z AUTO 16009G16KT 160V220 10SM SCT060 BKN070 19/15 A2977 RMK AO2 T01880153 10188 20167

Get Your Daily Forecast Email!

Thanks for signing up!

Be on the lookout for a verification email in your inbox.

You'll start receiving severe weather alerts in your inbox..

×

10-Day Weather Forecast

Almanac

Astronomy

Jun. 28, 2017 Rise Set
Actual Time
Civil Twilight
Nautical Twilight
Astronomical Twilight
Moon
Length of Visible Light
Length of Day
Tomorrow will be .
, % of the Moon is Illuminated

Today's Extremes

State Highs State Lows

Community

WunderPhotos

Category 6

Welcome to Category 6. This is the collective home for Weather Underground's featured writeups by Dr. Jeff Masters (right), Bob Henson (left), Chris Burt, and other regular contributors.

Nearby

Air Quality

  Air Quality AQ Index Pollutant
Not available.

Snow Depth

Station Depth Elevation

Earthquake Activity

City Distance Mag. Time & Date
Minimum magnitude displayed is 2.5.

Coastal Water Temperatures

Place Temperature

Stations

Nearby Weather Stations

Station Location Temp. Windchill Dew Point Humidity Wind Precip. Elev Updated Type
                   

Watches & Warnings

Beach Hazard Statement
Issued: 4:38 PM EDT Jun. 28, 2017 – National Weather Service

... Beach hazards statement remains in effect through Thursday
morning...

* hazards... strong currents and high waves.

* Timing... through Thursday morning.

* Location... Lake Michigan beaches of northwest lower Michigan
from Manistee County through Leelanau County

Precautionary/preparedness actions...

A high swim risk means life threatening waves and currents are
expected. Stay out of the water and stay away from dangerous
areas like piers and breakwalls.